Time;durP1;ratioP1;P1;durP2;ratioP2;P2;SDS_P1;SDS_P2;PMS_P1;PMS_P2;Temp;Humidity;BMP_temperature;BMP_pressure;BME280_temperature;BME280_humidity;BME280_pressure;Samples;Min_cycle;Max_cycle;Signal;HPM_P1;HPM_P2
2022/01/30 00:01:44;;;;;;;14.88;2.00;;;;;;;5.10;90.01;102119.28;5096598;28;20031;-75
2022/01/30 00:04:10;;;;;;;13.38;3.13;;;;;;;5.02;89.16;102108.38;5099088;28;20024;-75
2022/01/30 00:06:36;;;;;;;12.25;2.90;;;;;;;5.12;88.99;102120.06;5064340;28;20050;-75
2022/01/30 00:09:01;;;;;;;12.25;2.47;;;;;;;5.13;88.86;102112.09;5071354;28;20031;-75
2022/01/30 00:11:32;;;;;;;14.23;3.20;;;;;;;5.13;89.30;102116.50;5084278;28;20035;-75
2022/01/30 00:13:59;;;;;;;28.50;3.67;;;;;;;5.07;89.69;102108.97;5081752;28;20062;-75
2022/01/30 00:16:29;;;;;;;11.75;2.30;;;;;;;5.08;88.78;102121.16;5065240;28;20479;-75
2022/01/30 00:19:10;;;;;;;13.52;2.63;;;;;;;4.99;87.74;102103.31;5083708;28;20395;-75
2022/01/30 00:21:40;;;;;;;20.85;3.15;;;;;;;5.06;87.87;102128.22;5064063;28;20043;-75
2022/01/30 00:24:15;;;;;;;7.95;1.98;;;;;;;5.01;88.01;102111.91;5066361;28;20081;-75
2022/01/30 00:26:41;;;;;;;13.23;2.25;;;;;;;5.03;88.32;102120.53;5100042;28;20031;-76
2022/01/30 00:29:07;;;;;;;17.95;3.70;;;;;;;5.02;88.78;102117.06;5080004;28;20107;-75
2022/01/30 00:31:34;;;;;;;12.77;2.05;;;;;;;4.99;89.58;102105.91;5099298;28;20027;-75
2022/01/30 00:34:01;;;;;;;29.00;4.72;;;;;;;4.84;89.99;102094.53;5100561;28;20487;-75
2022/01/30 00:36:29;;;;;;;16.55;3.85;;;;;;;4.91;90.43;102107.19;5074922;28;20027;-75
2022/01/30 00:38:55;;;;;;;12.48;2.25;;;;;;;4.78;90.71;102080.00;5082293;28;20262;-75
2022/01/30 00:41:20;;;;;;;15.90;2.80;;;;;;;4.87;90.71;102107.44;5098356;28;20020;-76
2022/01/30 00:43:45;;;;;;;10.85;3.40;;;;;;;4.75;91.00;102098.47;5096600;28;20031;-75
2022/01/30 00:46:11;;;;;;;8.00;1.80;;;;;;;4.79;91.24;102114.84;5077406;28;20031;-75
2022/01/30 00:48:36;;;;;;;18.85;2.83;;;;;;;4.69;91.04;102102.25;5082434;28;20031;-74
2022/01/30 00:51:02;;;;;;;13.50;2.95;;;;;;;4.81;91.41;102108.59;5077734;28;20085;-74
2022/01/30 00:53:27;;;;;;;21.17;4.18;;;;;;;4.59;91.19;102061.81;5082342;28;20020;-74
2022/01/30 00:55:53;;;;;;;18.00;3.88;;;;;;;4.69;90.79;102081.34;5082041;28;20027;-74
2022/01/30 00:58:18;;;;;;;26.38;2.85;;;;;;;4.67;89.96;102100.66;5075470;28;20044;-74
2022/01/30 01:00:43;;;;;;;11.95;2.47;;;;;;;4.66;89.82;102078.03;5078859;28;20036;-74
2022/01/30 01:03:09;;;;;;;8.68;2.42;;;;;;;4.73;89.78;102085.47;5097300;28;20081;-75
2022/01/30 01:05:36;;;;;;;20.50;3.10;;;;;;;4.80;90.18;102101.69;5080369;28;20549;-76
2022/01/30 01:08:12;;;;;;;9.30;2.05;;;;;;;4.81;89.71;102092.91;5085092;28;20023;-76
2022/01/30 01:10:44;;;;;;;19.38;3.42;;;;;;;4.79;89.29;102089.56;5080363;28;20127;-76
2022/01/30 01:24:04;;;;;;;29.50;4.60;;;;;;;5.14;89.16;102120.81;5086127;28;20035;-76
2022/01/30 01:26:31;;;;;;;19.23;3.85;;;;;;;5.18;88.98;102132.78;5094986;28;20418;-75
2022/01/30 01:28:56;;;;;;;20.85;3.58;;;;;;;5.16;89.72;102142.50;5096620;28;20027;-75
2022/01/30 01:31:23;;;;;;;16.65;2.75;;;;;;;4.98;91.64;102162.66;5077883;28;20024;-75
2022/01/30 01:34:05;;;;;;;16.27;3.00;;;;;;;4.84;92.79;102149.47;5100937;28;20032;-75
2022/01/30 01:36:31;;;;;;;14.77;2.60;;;;;;;4.71;92.00;102144.03;5063388;28;20306;-75
2022/01/30 01:38:56;;;;;;;9.27;2.25;;;;;;;4.72;90.93;102140.47;5077995;28;20471;-75
2022/01/30 01:41:24;;;;;;;10.80;2.05;;;;;;;4.72;90.85;102161.41;5093681;28;20036;-75
2022/01/30 01:43:50;;;;;;;13.30;1.75;;;;;;;4.61;90.00;102127.13;5082611;28;20036;-75
2022/01/30 01:46:21;;;;;;;14.07;3.00;;;;;;;4.72;89.79;102146.53;5075555;28;20028;-75
2022/01/30 01:48:50;;;;;;;15.93;1.80;;;;;;;4.67;88.41;102151.19;5092882;28;20032;-75
2022/01/30 01:51:19;;;;;;;16.70;2.72;;;;;;;4.67;89.15;102164.25;5091198;28;20020;-75
2022/01/30 01:53:47;;;;;;;17.42;2.33;;;;;;;4.63;89.97;102164.50;5092071;28;20543;-76
2022/01/30 01:56:15;;;;;;;21.52;3.53;;;;;;;4.60;90.22;102178.56;5099135;28;20057;-76
2022/01/30 01:58:41;;;;;;;10.60;2.35;;;;;;;4.49;91.26;102155.59;5078317;28;20031;-76
2022/01/30 02:01:07;;;;;;;19.35;3.10;;;;;;;4.36;92.18;102145.84;5076767;28;20020;-76
2022/01/30 02:03:37;;;;;;;16.55;2.70;;;;;;;4.54;92.31;102182.34;5061693;28;20472;-76
2022/01/30 02:06:04;;;;;;;16.87;3.63;;;;;;;4.56;92.37;102184.03;5072056;28;20109;-75
2022/01/30 02:14:03;;;;;;;23.92;3.97;;;;;;;4.60;92.66;102196.03;5092269;28;20040;-76
2022/01/30 02:25:13;;;;;;;17.05;3.55;;;;;;;4.68;89.07;102197.34;5099109;28;20094;-75
2022/01/30 02:27:39;;;;;;;16.90;3.03;;;;;;;4.72;88.07;102200.63;5065269;28;20042;-75
2022/01/30 02:30:15;;;;;;;19.52;2.80;;;;;;;4.73;88.03;102204.94;5103682;28;20031;-75
2022/01/30 02:32:41;;;;;;;27.73;3.90;;;;;;;4.69;87.93;102211.25;5093170;28;20024;-75
2022/01/30 02:35:07;;;;;;;21.48;5.55;;;;;;;4.67;89.01;102211.31;5081848;28;20028;-75
2022/01/30 02:37:32;;;;;;;18.77;4.28;;;;;;;4.67;89.09;102226.19;5100365;28;20080;-75
2022/01/30 02:39:58;;;;;;;23.65;3.70;;;;;;;4.67;89.14;102195.63;5096850;28;20062;-76
2022/01/30 02:42:28;;;;;;;22.38;3.08;;;;;;;4.68;89.49;102207.81;5086295;28;20029;-75
2022/01/30 02:44:57;;;;;;;27.45;4.70;;;;;;;4.73;89.54;102221.47;5101484;28;20104;-75
2022/01/30 02:47:54;;;;;;;21.60;3.55;;;;;;;4.74;90.18;102219.69;5107768;28;20033;-76
2022/01/30 02:50:16;;;;;;;35.38;4.93;;;;;;;4.81;90.11;102239.38;5099585;28;20028;-75
2022/01/30 02:52:44;;;;;;;32.58;4.18;;;;;;;4.72;90.25;102224.16;5084218;28;20457;-75
2022/01/30 02:55:11;;;;;;;27.20;4.10;;;;;;;4.78;89.92;102225.63;5082616;28;20024;-75
2022/01/30 02:57:37;;;;;;;17.15;3.15;;;;;;;4.90;89.36;102238.94;5080355;28;20116;-75
2022/01/30 03:00:07;;;;;;;24.48;4.18;;;;;;;4.90;88.89;102238.94;5102352;28;20028;-76
2022/01/30 03:02:33;;;;;;;21.90;4.95;;;;;;;4.95;88.23;102252.63;5082365;28;20340;-75
2022/01/30 03:04:58;;;;;;;22.75;4.35;;;;;;;5.03;86.63;102252.22;5101960;28;20038;-76
2022/01/30 03:07:24;;;;;;;23.10;4.43;;;;;;;5.02;85.34;102263.59;5078071;28;20131;-76
2022/01/30 03:09:49;;;;;;;17.30;2.85;;;;;;;5.03;84.83;102260.09;5074264;28;20028;-75
2022/01/30 03:12:14;;;;;;;20.08;4.25;;;;;;;4.93;84.89;102251.84;5045284;28;20127;-76
2022/01/30 03:14:42;;;;;;;24.55;4.95;;;;;;;5.12;84.62;102285.78;5068755;28;20031;-76
2022/01/30 03:17:07;;;;;;;22.27;3.08;;;;;;;5.10;85.48;102281.53;5080790;28;20495;-75
2022/01/30 03:19:33;;;;;;;20.10;3.75;;;;;;;5.06;86.64;102264.31;5086557;28;20307;-75
2022/01/30 03:21:58;;;;;;;23.45;4.38;;;;;;;5.09;87.06;102282.44;5080100;28;20032;-75
2022/01/30 03:24:24;;;;;;;24.98;3.50;;;;;;;4.90;86.87;102262.47;5077839;28;20028;-75
2022/01/30 03:26:49;;;;;;;24.25;4.47;;;;;;;5.06;86.38;102291.31;5076545;28;20042;-76
2022/01/30 03:29:14;;;;;;;15.48;3.80;;;;;;;4.83;85.78;102257.63;5082404;28;20036;-76
2022/01/30 03:31:41;;;;;;;22.58;3.72;;;;;;;5.08;85.34;102291.25;5055178;28;20031;-75
2022/01/30 03:34:08;;;;;;;14.20;3.08;;;;;;;5.08;85.09;102299.09;5094432;28;20038;-76
2022/01/30 03:36:35;;;;;;;26.33;3.65;;;;;;;5.10;85.14;102297.25;5085723;28;20031;-75
2022/01/30 03:39:00;;;;;;;38.55;4.45;;;;;;;4.90;85.10;102252.00;5083770;28;20553;-75
2022/01/30 03:41:26;;;;;;;27.30;5.30;;;;;;;5.17;85.52;102296.00;5079139;28;20032;-75
2022/01/30 03:43:53;;;;;;;23.83;4.40;;;;;;;5.08;85.48;102284.22;5099330;28;20028;-75
2022/01/30 03:46:23;;;;;;;14.55;2.97;;;;;;;5.18;85.11;102288.97;5086884;28;20031;-75
2022/01/30 03:48:49;;;;;;;19.42;3.05;;;;;;;5.07;85.07;102271.22;5085766;28;20040;-75
2022/01/30 03:51:14;;;;;;;25.25;4.32;;;;;;;5.20;84.79;102287.97;5069091;28;20536;-75
2022/01/30 03:53:40;;;;;;;20.58;3.88;;;;;;;5.21;83.68;102289.69;5101092;28;20047;-75
2022/01/30 03:56:06;;;;;;;22.48;3.40;;;;;;;5.24;83.54;102272.97;5090411;28;20119;-75
2022/01/30 03:58:33;;;;;;;20.90;4.03;;;;;;;5.26;82.48;102307.75;5089276;28;20051;-75
2022/01/30 04:00:59;;;;;;;23.55;3.78;;;;;;;5.26;82.15;102307.75;5089072;28;20047;-75
2022/01/30 04:03:25;;;;;;;14.40;3.90;;;;;;;5.23;80.98;102303.53;5094416;28;20355;-75
2022/01/30 04:05:50;;;;;;;18.55;2.78;;;;;;;5.03;77.33;102272.28;5105198;28;20064;-75
2022/01/30 04:08:16;;;;;;;28.13;4.13;;;;;;;5.06;76.11;102259.06;5077806;28;20048;-75
2022/01/30 04:10:43;;;;;;;15.02;3.45;;;;;;;5.17;75.40;102298.63;5071814;28;20035;-76
2022/01/30 04:13:09;;;;;;;21.23;3.30;;;;;;;5.15;74.92;102284.75;5059054;28;20032;-77
2022/01/30 04:15:35;;;;;;;20.40;2.80;;;;;;;5.19;75.41;102312.47;5086402;28;20238;-77
2022/01/30 04:18:01;;;;;;;20.77;3.60;;;;;;;5.04;76.04;102297.56;5099346;28;20020;-77
2022/01/30 04:20:28;;;;;;;10.55;3.28;;;;;;;5.26;76.50;102332.16;5074971;28;20032;-77
2022/01/30 04:22:53;;;;;;;15.63;3.25;;;;;;;5.10;77.01;102320.81;5104571;28;20035;-76
2022/01/30 04:25:18;;;;;;;25.20;4.07;;;;;;;5.25;78.66;102347.97;5062533;28;20383;-75
2022/01/30 04:27:44;;;;;;;13.90;3.40;;;;;;;5.22;80.98;102346.31;5099788;28;20106;-75
2022/01/30 04:30:11;;;;;;;29.33;5.00;;;;;;;5.15;82.53;102363.28;5082056;28;20114;-75
2022/01/30 04:32:41;;;;;;;24.30;4.15;;;;;;;4.99;83.28;102350.13;5085890;28;20077;-76
2022/01/30 04:35:16;;;;;;;26.27;5.60;;;;;;;5.09;83.92;102366.19;5082614;28;20038;-76
2022/01/30 04:38:15;;;;;;;24.98;4.60;;;;;;;5.10;85.19;102368.75;5078577;28;20031;-76
2022/01/30 04:41:20;;;;;;;20.95;3.58;;;;;;;4.97;83.91;102348.50;5104113;28;20093;-77
2022/01/30 05:02:13;;;;;;;22.55;3.97;;;;;;;4.99;77.72;102347.50;5107146;28;20463;-75
2022/01/30 05:09:33;;;;;;;19.65;3.15;;;;;;;5.00;81.32;102351.81;5070536;28;20563;-75
2022/01/30 05:11:59;;;;;;;21.15;5.25;;;;;;;4.98;81.78;102356.25;5106726;28;20106;-75
2022/01/30 05:14:28;;;;;;;23.33;4.10;;;;;;;5.01;83.68;102348.28;5094170;28;20027;-77
2022/01/30 05:16:53;;;;;;;32.95;4.82;;;;;;;5.01;84.54;102369.22;5103061;28;20027;-76
2022/01/30 05:19:19;;;;;;;25.75;4.68;;;;;;;4.80;86.45;102339.72;5076624;28;20127;-76
2022/01/30 05:21:44;;;;;;;29.33;4.70;;;;;;;4.95;88.10;102354.66;5081826;28;20111;-75
2022/01/30 05:24:10;;;;;;;35.78;4.75;;;;;;;4.93;90.04;102364.34;5101168;28;20059;-76
2022/01/30 05:26:40;;;;;;;21.55;3.92;;;;;;;4.79;91.25;102355.47;5105094;28;20416;-76
2022/01/30 05:29:06;;;;;;;28.63;5.55;;;;;;;4.73;91.89;102367.09;5085813;28;20044;-76
2022/01/30 05:31:31;;;;;;;23.67;4.78;;;;;;;4.81;92.08;102393.72;5037688;28;20504;-76
2022/01/30 05:33:57;;;;;;;26.15;4.10;;;;;;;4.82;93.07;102400.66;5099700;28;20040;-76
2022/01/30 05:36:23;;;;;;;29.70;4.57;;;;;;;4.72;94.79;102378.47;5107480;28;20076;-76
2022/01/30 05:38:50;;;;;;;28.90;6.68;;;;;;;4.74;94.86;102397.56;5067585;28;20040;-75
2022/01/30 05:41:15;;;;;;;30.63;4.57;;;;;;;4.78;95.04;102409.56;5104060;27;20055;-76
2022/01/30 05:43:42;;;;;;;25.33;5.95;;;;;;;4.73;95.07;102401.09;5098638;28;20114;-76
2022/01/30 05:46:14;;;;;;;34.53;4.95;;;;;;;4.72;94.16;102396.78;5107112;28;20400;-75
2022/01/30 05:48:40;;;;;;;40.47;6.75;;;;;;;4.67;94.68;102410.09;5103109;28;20081;-76
2022/01/30 05:51:06;;;;;;;40.72;5.50;;;;;;;4.53;94.87;102407.28;5087177;28;20028;-76
2022/01/30 05:53:32;;;;;;;18.73;3.88;;;;;;;4.65;94.56;102416.31;5076529;28;20038;-75
2022/01/30 05:55:57;;;;;;;33.70;4.80;;;;;;;4.59;95.02;102416.59;5096085;28;20435;-75
2022/01/30 05:58:23;;;;;;;23.30;4.43;;;;;;;4.58;94.29;102425.38;5094488;28;20028;-75
2022/01/30 06:00:48;;;;;;;22.00;4.43;;;;;;;4.54;94.05;102415.03;5099156;28;20484;-75
2022/01/30 06:03:14;;;;;;;27.55;4.50;;;;;;;4.44;92.81;102408.56;5082780;28;20039;-75
2022/01/30 06:05:40;;;;;;;28.05;3.97;;;;;;;4.41;92.33;102416.53;5084098;28;20035;-75
2022/01/30 06:08:15;;;;;;;24.00;5.68;;;;;;;4.26;92.09;102383.28;5102411;28;20104;-75
2022/01/30 06:10:41;;;;;;;25.73;4.68;;;;;;;4.43;92.07;102411.25;5058853;28;20085;-76
2022/01/30 06:13:06;;;;;;;28.02;4.80;;;;;;;4.46;91.65;102409.31;5083637;28;20449;-76
2022/01/30 06:15:32;;;;;;;42.90;5.50;;;;;;;4.48;91.21;102417.94;5084687;28;20097;-76
2022/01/30 06:17:57;;;;;;;32.15;4.18;;;;;;;4.52;91.98;102422.13;5105245;28;20027;-76
2022/01/30 06:20:22;;;;;;;26.42;5.25;;;;;;;4.53;92.21;102434.28;5093312;28;20119;-77
2022/01/30 06:22:48;;;;;;;19.98;5.22;;;;;;;4.58;92.35;102433.22;5071239;28;20249;-76
2022/01/30 06:25:14;;;;;;;24.08;4.35;;;;;;;4.37;91.92;102401.91;5103694;28;20027;-76
2022/01/30 06:27:40;;;;;;;25.25;4.60;;;;;;;4.53;88.74;102434.28;5074986;28;20111;-76
2022/01/30 06:30:07;;;;;;;21.25;3.75;;;;;;;4.59;87.46;102446.22;5073347;28;20106;-76
2022/01/30 06:32:32;;;;;;;21.75;4.82;;;;;;;4.55;85.05;102455.09;5103647;28;20589;-76
2022/01/30 06:34:58;;;;;;;12.50;2.63;;;;;;;4.56;82.62;102448.97;5099167;28;20047;-75
2022/01/30 06:37:23;;;;;;;16.88;3.53;;;;;;;4.56;81.31;102462.06;5080150;28;20028;-77
2022/01/30 06:39:49;;;;;;;10.57;3.05;;;;;;;4.54;79.24;102461.28;5079933;28;20119;-76
2022/01/30 06:42:14;;;;;;;22.75;4.15;;;;;;;4.61;79.42;102462.66;5095721;28;20035;-76
2022/01/30 06:44:40;;;;;;;16.98;4.30;;;;;;;4.61;78.72;102461.84;5102702;28;20030;-76
2022/01/30 06:47:06;;;;;;;15.70;3.72;;;;;;;4.59;78.53;102468.91;5083499;28;20038;-76
2022/01/30 06:49:32;;;;;;;15.73;3.08;;;;;;;4.54;79.40;102462.13;5099925;28;20118;-76
2022/01/30 06:51:57;;;;;;;16.73;3.22;;;;;;;4.57;79.51;102470.72;5077502;28;20053;-76
2022/01/30 06:54:22;;;;;;;25.38;3.80;;;;;;;4.61;79.88;102488.81;5072738;28;20024;-76
2022/01/30 06:56:48;;;;;;;19.35;4.50;;;;;;;4.54;77.95;102488.25;5069401;28;20131;-76
2022/01/30 06:59:13;;;;;;;14.70;2.78;;;;;;;4.49;77.84;102495.47;5063186;28;20036;-76
2022/01/30 07:01:39;;;;;;;13.63;2.60;;;;;;;4.47;78.23;102499.09;5071605;28;20032;-76
2022/01/30 07:04:04;;;;;;;10.90;2.70;;;;;;;4.43;78.33;102489.69;5062157;28;20482;-76
2022/01/30 07:06:30;;;;;;;10.20;3.35;;;;;;;4.38;76.29;102512.53;5079001;28;20314;-75
2022/01/30 07:08:55;;;;;;;28.13;3.72;;;;;;;4.22;77.82;102484.47;5081776;28;20066;-75
2022/01/30 07:11:20;;;;;;;14.95;3.58;;;;;;;4.37;77.39;102511.72;5068598;28;20074;-75
2022/01/30 07:13:46;;;;;;;15.95;3.90;;;;;;;4.40;76.62;102526.41;5090352;28;20043;-76
2022/01/30 07:16:11;;;;;;;26.83;4.43;;;;;;;4.33;76.67;102503.19;5100732;28;20387;-76
2022/01/30 07:18:37;;;;;;;29.40;3.03;;;;;;;4.47;76.88;102523.47;5097843;28;20045;-76
2022/01/30 07:21:04;;;;;;;20.20;2.60;;;;;;;4.23;77.61;102473.13;5074275;28;20028;-75
2022/01/30 07:23:30;;;;;;;20.33;3.55;;;;;;;4.42;77.50;102509.75;5092191;28;20562;-75
2022/01/30 07:25:55;;;;;;;18.10;3.28;;;;;;;4.41;78.29;102501.97;5097058;28;20020;-75
2022/01/30 07:28:21;;;;;;;15.52;3.28;;;;;;;4.53;77.99;102538.88;5074083;28;20058;-75
2022/01/30 07:30:46;;;;;;;31.35;4.57;;;;;;;4.56;78.79;102543.09;5075556;28;20020;-75
2022/01/30 07:33:12;;;;;;;22.60;3.60;;;;;;;4.44;79.08;102512.28;5085953;28;20057;-76
2022/01/30 07:35:40;;;;;;;18.50;2.97;;;;;;;4.61;79.87;102540.28;5074599;28;20047;-76
2022/01/30 07:38:06;;;;;;;26.48;4.15;;;;;;;4.54;80.09;102531.88;5093322;28;20028;-76
2022/01/30 07:40:33;;;;;;;21.80;3.38;;;;;;;4.61;80.89;102554.19;5058501;28;20677;-76
2022/01/30 07:42:58;;;;;;;15.68;4.03;;;;;;;4.53;81.44;102532.81;5095862;28;20036;-76
2022/01/30 07:45:24;;;;;;;22.08;3.63;;;;;;;4.69;80.98;102546.88;5076913;28;20086;-76
2022/01/30 07:47:50;;;;;;;31.05;4.03;;;;;;;4.68;80.50;102541.69;5079403;28;20066;-75
2022/01/30 07:50:16;;;;;;;30.17;4.20;;;;;;;4.64;78.52;102542.75;5099161;28;20023;-75
2022/01/30 07:52:41;;;;;;;18.52;5.10;;;;;;;4.67;77.88;102537.41;5106418;28;20019;-75
2022/01/30 07:55:07;;;;;;;14.57;3.22;;;;;;;4.68;77.34;102546.91;5063956;28;20515;-75
2022/01/30 07:57:32;;;;;;;22.50;4.45;;;;;;;4.75;76.90;102566.66;5092284;28;20035;-75
2022/01/30 07:59:58;;;;;;;25.75;4.20;;;;;;;4.77;77.06;102562.22;5093253;28;20336;-75
2022/01/30 08:02:23;;;;;;;30.80;4.32;;;;;;;4.72;76.99;102554.56;5095194;28;20019;-75
2022/01/30 08:04:49;;;;;;;23.45;3.83;;;;;;;4.83;78.40;102561.91;5082123;28;20066;-75
2022/01/30 08:07:14;;;;;;;23.48;4.32;;;;;;;4.82;78.68;102577.69;5101643;28;20044;-75
2022/01/30 08:09:39;;;;;;;28.83;5.35;;;;;;;4.83;80.18;102572.38;5074511;28;20111;-75
2022/01/30 08:12:06;;;;;;;26.70;3.92;;;;;;;4.88;81.59;102577.44;5074146;28;20016;-75
2022/01/30 08:14:32;;;;;;;31.67;4.38;;;;;;;4.84;81.36;102573.25;5077276;28;20079;-75
2022/01/30 08:16:57;;;;;;;25.75;4.75;;;;;;;4.73;81.66;102556.28;5074960;28;20028;-76
2022/01/30 08:19:24;;;;;;;19.08;3.65;;;;;;;4.86;81.47;102581.88;5076558;28;20343;-75
2022/01/30 08:21:50;;;;;;;30.83;4.15;;;;;;;4.88;80.37;102588.72;5065425;28;20043;-76
2022/01/30 08:24:15;;;;;;;27.05;5.32;;;;;;;4.89;78.21;102593.03;5101234;28;20031;-77
2022/01/30 08:26:40;;;;;;;27.52;3.72;;;;;;;4.83;76.35;102593.31;5084519;28;20040;-76
2022/01/30 08:29:06;;;;;;;30.95;4.10;;;;;;;4.83;75.25;102588.06;5080979;28;20035;-76
2022/01/30 08:31:31;;;;;;;18.10;4.63;;;;;;;4.87;75.63;102587.03;5084895;28;20483;-75
2022/01/30 08:33:57;;;;;;;13.38;3.65;;;;;;;5.01;75.63;102582.91;5083185;28;20058;-75
2022/01/30 08:36:22;;;;;;;20.02;3.60;;;;;;;5.48;74.35;102574.59;5079131;28;20028;-74
2022/01/30 08:38:47;;;;;;;23.48;4.82;;;;;;;5.96;72.96;102596.69;5099947;28;20035;-76
2022/01/30 08:41:13;;;;;;;15.18;2.72;;;;;;;6.26;72.36;102598.69;5061671;28;20043;-75
2022/01/30 08:43:38;;;;;;;16.90;3.20;;;;;;;6.21;71.48;102596.31;5083029;28;20036;-75
2022/01/30 08:46:04;;;;;;;17.75;5.25;;;;;;;6.11;72.05;102597.69;5080302;28;20032;-75
2022/01/30 08:48:31;;;;;;;17.17;3.15;;;;;;;6.14;73.45;102598.41;5083215;28;20072;-75
2022/01/30 08:50:57;;;;;;;33.85;4.60;;;;;;;5.91;73.79;102572.47;5079376;28;20088;-75
2022/01/30 08:53:22;;;;;;;20.05;4.15;;;;;;;5.96;74.71;102608.03;5077560;28;20460;-75
2022/01/30 08:55:48;;;;;;;23.58;3.85;;;;;;;5.93;75.18;102604.69;5097489;28;20024;-74
2022/01/30 08:58:13;;;;;;;20.85;5.68;;;;;;;5.95;75.12;102615.97;5103281;28;20499;-74
2022/01/30 09:00:42;;;;;;;17.10;4.18;;;;;;;5.80;75.04;102585.25;5081076;28;20115;-74
2022/01/30 09:03:07;;;;;;;26.33;4.05;;;;;;;6.10;74.69;102609.97;5098662;28;20036;-74
2022/01/30 09:05:34;;;;;;;22.17;5.55;;;;;;;6.18;74.50;102617.44;5064305;28;20376;-74
2022/01/30 09:08:05;;;;;;;20.30;3.53;;;;;;;6.57;75.41;102616.31;5102475;28;20060;-74
2022/01/30 09:10:36;;;;;;;46.00;5.63;;;;;;;7.22;73.51;102618.94;5077120;28;20028;-75
2022/01/30 09:13:02;;;;;;;;;;;;;;;6.96;72.60;102601.97;5079532;28;20536;-75
2022/01/30 09:15:27;;;;;;;20.10;3.13;;;;;;;6.74;72.70;102587.38;5078738;28;19923;-75
2022/01/30 09:17:53;;;;;;;20.42;4.22;;;;;;;6.63;74.10;102581.03;5079046;28;20173;-75
2022/01/30 09:20:19;;;;;;;24.50;4.47;;;;;;;6.59;74.17;102602.16;5065198;28;20039;-75
2022/01/30 09:22:45;;;;;;;26.67;4.30;;;;;;;6.54;74.82;102608.59;5098999;28;20349;-75
2022/01/30 09:25:11;;;;;;;21.27;4.20;;;;;;;6.48;74.72;102612.38;5097906;28;20015;-75
2022/01/30 09:27:37;;;;;;;18.88;4.00;;;;;;;6.25;73.95;102610.09;5099540;28;20032;-75
2022/01/30 09:30:04;;;;;;;28.60;5.90;;;;;;;6.21;75.10;102598.94;5079351;28;20080;-75
2022/01/30 09:32:30;;;;;;;17.30;3.70;;;;;;;6.68;75.36;102620.97;5057523;28;20024;-74
2022/01/30 09:34:56;;;;;;;20.33;3.83;;;;;;;6.83;74.07;102621.94;5096745;28;20500;-75
2022/01/30 09:37:22;;;;;;;25.45;3.58;;;;;;;6.59;74.32;102601.31;5076747;28;20036;-75
2022/01/30 09:39:48;;;;;;;26.63;4.97;;;;;;;7.14;73.21;102629.88;5076322;28;20503;-75
2022/01/30 09:42:14;;;;;;;15.77;3.50;;;;;;;7.76;70.62;102635.16;5077650;28;20122;-74
2022/01/30 09:44:41;;;;;;;18.33;3.50;;;;;;;7.41;68.93;102624.03;5080540;28;20553;-75
2022/01/30 09:47:13;;;;;;;21.15;3.75;;;;;;;7.22;69.56;102621.56;5076490;28;20112;-75
2022/01/30 09:49:43;;;;;;;20.65;4.35;;;;;;;7.08;70.41;102651.22;5069503;28;20544;-75
2022/01/30 09:52:09;;;;;;;20.47;3.80;;;;;;;7.03;71.93;102655.00;5098778;28;20004;-75
2022/01/30 09:54:35;;;;;;;14.05;3.08;;;;;;;8.02;72.67;102662.56;5099400;28;20092;-75
2022/01/30 09:57:00;;;;;;;12.85;2.78;;;;;;;8.82;68.53;102654.41;5076420;28;20399;-75
2022/01/30 09:59:26;;;;;;;23.77;4.10;;;;;;;8.87;65.79;102662.00;5075231;28;20028;-74
2022/01/30 10:01:51;;;;;;;14.07;3.35;;;;;;;8.35;66.29;102650.19;5059493;28;20672;-75
2022/01/30 10:04:16;;;;;;;18.92;3.78;;;;;;;9.11;66.49;102676.28;5058954;28;20085;-75
2022/01/30 10:07:04;;;;;;;23.40;3.58;;;;;;;10.66;64.81;102678.50;5090036;28;20085;-76
2022/01/30 10:09:34;;;;;;;20.42;3.90;;;;;;;12.00;60.17;102684.81;5073442;28;20040;-76
2022/01/30 10:12:19;;;;;;;23.30;3.92;;;;;;;12.66;57.37;102685.97;5097511;28;20119;-76
2022/01/30 10:14:54;;;;;;;14.15;3.38;;;;;;;12.46;55.61;102694.63;5075162;28;20028;-76
2022/01/30 10:17:24;;;;;;;18.30;3.75;;;;;;;13.18;56.27;102687.19;5081747;28;20427;-78
2022/01/30 10:19:59;;;;;;;18.10;4.20;;;;;;;13.76;54.52;102696.72;5092219;28;20052;-77
2022/01/30 10:22:24;;;;;;;23.48;3.70;;;;;;;13.02;54.65;102686.72;5077317;28;20034;-76
2022/01/30 10:24:50;;;;;;;24.67;4.38;;;;;;;12.17;56.44;102700.28;5094795;28;20036;-75
2022/01/30 10:27:25;;;;;;;17.38;3.60;;;;;;;12.79;55.27;102704.41;5075088;28;20468;-76
2022/01/30 10:30:07;;;;;;;18.80;3.60;;;;;;;11.83;56.31;102716.00;5095632;27;20391;-75
2022/01/30 10:32:32;;;;;;;;;;;;;;;11.08;59.34;102722.25;5095816;28;20391;-74
2022/01/30 10:34:58;;;;;;;25.10;4.13;;;;;;;12.51;56.70;102703.88;5094008;28;19912;-75
2022/01/30 10:37:24;;;;;;;17.50;2.97;;;;;;;13.47;53.49;102712.38;5076644;28;20028;-75
2022/01/30 10:39:53;;;;;;;20.65;3.38;;;;;;;14.72;50.51;102701.09;5077743;28;20024;-75
2022/01/30 10:42:39;;;;;;;19.48;3.40;;;;;;;15.64;49.47;102708.13;5075459;28;20630;-75
2022/01/30 10:45:31;;;;;;;15.93;2.92;;;;;;;16.12;46.20;102711.81;5096826;28;20464;-76
2022/01/30 10:48:12;;;;;;;18.17;4.00;;;;;;;17.13;45.92;102712.13;5084919;28;20507;-75
2022/01/30 10:50:41;;;;;;;19.42;3.83;;;;;;;17.31;43.98;102714.84;5085800;28;20107;-76
2022/01/30 10:53:06;;;;;;;17.55;3.45;;;;;;;17.10;44.34;102715.94;5095440;28;20106;-76
2022/01/30 10:55:34;;;;;;;14.40;3.75;;;;;;;17.71;45.61;102714.47;5056738;28;20143;-76
2022/01/30 10:58:01;;;;;;;23.20;5.43;;;;;;;17.69;43.10;102724.47;5077270;28;20028;-76
2022/01/30 11:00:36;;;;;;;23.40;3.85;;;;;;;17.46;45.84;102729.38;5060929;28;20541;-76
2022/01/30 11:03:01;;;;;;;17.15;4.15;;;;;;;16.51;46.26;102733.09;5097207;28;20052;-75
2022/01/30 11:05:27;;;;;;;19.08;4.20;;;;;;;16.34;47.45;102738.16;5097376;28;20027;-75
2022/01/30 11:07:52;;;;;;;20.15;4.03;;;;;;;15.43;46.99;102732.16;5081062;28;20590;-76
2022/01/30 11:10:24;;;;;;;24.33;5.13;;;;;;;14.63;49.07;102731.09;5080402;28;20027;-76
2022/01/30 11:13:07;;;;;;;18.33;4.45;;;;;;;14.35;50.80;102730.75;5071024;28;20039;-76
2022/01/30 11:15:37;;;;;;;18.67;3.60;;;;;;;13.78;51.25;102748.72;5087352;28;20031;-75
2022/01/30 11:18:04;;;;;;;17.52;3.03;;;;;;;13.71;51.68;102746.69;5098782;28;20117;-75
2022/01/30 11:20:34;;;;;;;21.75;4.00;;;;;;;13.40;52.40;102733.22;5100044;28;20099;-75
2022/01/30 11:23:01;;;;;;;25.52;4.03;;;;;;;12.82;54.32;102733.31;5079360;28;20032;-76
2022/01/30 11:25:35;;;;;;;18.40;3.67;;;;;;;12.85;54.82;102733.09;5098935;28;20028;-75
2022/01/30 11:28:03;;;;;;;19.25;4.30;;;;;;;12.51;55.30;102740.94;5099474;28;20433;-75
2022/01/30 11:30:33;;;;;;;26.85;4.38;;;;;;;12.00;54.92;102729.81;5099009;28;20016;-75
2022/01/30 11:32:59;;;;;;;19.38;4.00;;;;;;;11.89;56.31;102738.56;5097328;28;20434;-75
2022/01/30 11:35:25;;;;;;;16.50;3.05;;;;;;;11.76;56.88;102716.53;5080098;28;20036;-75
2022/01/30 11:37:51;;;;;;;26.00;3.67;;;;;;;11.85;56.81;102732.59;5078510;28;20125;-75
2022/01/30 11:40:18;;;;;;;18.42;4.63;;;;;;;11.85;57.42;102727.31;5082853;28;20032;-75
2022/01/30 11:42:48;;;;;;;27.88;4.93;;;;;;;11.68;57.28;102722.41;5097076;28;20286;-75
2022/01/30 11:45:20;;;;;;;21.85;3.80;;;;;;;11.67;57.67;102721.56;5082170;28;20062;-75
2022/01/30 11:47:55;;;;;;;18.30;4.15;;;;;;;11.35;56.91;102726.53;5098732;28;20080;-75
2022/01/30 11:50:26;;;;;;;21.20;3.95;;;;;;;10.86;60.15;102743.16;5079566;28;20024;-75
2022/01/30 11:52:59;;;;;;;20.10;5.15;;;;;;;10.44;61.43;102753.88;5098821;28;20023;-75
2022/01/30 11:55:48;;;;;;;18.67;3.72;;;;;;;9.72;62.89;102740.09;5098125;28;20103;-75
2022/01/30 11:58:42;;;;;;;26.27;4.30;;;;;;;9.38;63.76;102739.56;5098006;28;20563;-75
2022/01/30 12:01:35;;;;;;;16.65;3.40;;;;;;;9.19;63.43;102710.03;5097604;28;20183;-75
2022/01/30 12:04:09;;;;;;;30.77;4.53;;;;;;;9.18;63.19;102726.81;5080591;28;20287;-75
2022/01/30 12:06:43;;;;;;;19.95;4.72;;;;;;;9.02;65.46;102727.75;5096593;28;20164;-75
2022/01/30 12:09:15;;;;;;;21.27;4.63;;;;;;;8.93;64.91;102743.25;5080555;28;20119;-74
2022/01/30 12:11:40;;;;;;;17.13;3.65;;;;;;;8.89;65.29;102744.41;5096956;28;20028;-75
2022/01/30 12:14:13;;;;;;;18.00;3.78;;;;;;;8.68;64.66;102723.66;5080637;28;20028;-74
2022/01/30 12:16:46;;;;;;;16.48;3.35;;;;;;;8.77;65.86;102731.00;5097757;28;20062;-75